<?xml version="1.0" encoding="UTF-8" standalone="no" ?>
<gpx xmlns="http://www.topografix.com/GPX/1/1" xmlns:xsi="http://www.w3.org/2001/XMLSchema-instance" xsi:schemaLocation="http://www.topografix.com/GPX/1/1 http://www.topografix.com/GPX/1/1/gpx.xsd" version="1.1" creator="VisuGPX - https://www.visugpx.com">
  <metadata>
    <name>ARQUES LA SEYNE SUR MER 1497 KM</name>
    <desc><![CDATA[Rando de Arques dans le Pas de Calais jusque La Seyne sur Mer dans le Var, 1497 km]]></desc>
  </metadata>
  <trk>
    <name><![CDATA[33 - MALAY CLUNY 20.4 KM]]></name>
    <extensions>
      <line xmlns="http://www.topografix.com/GPX/gpx_style/0/2">
        <color>008800</color>
        <width>4</width>
      </line>
    </extensions>
    <trkseg>
      <trkpt lat="46.57575" lon="4.69438">
        <ele>208</ele>
        <time>2021-11-15T16:10:50+01:00</time>
      </trkpt>
      <trkpt lat="46.57002" lon="4.68989">
        <ele>205</ele>
        <time>2021-11-15T16:10:55+01:00</time>
      </trkpt>
      <trkpt lat="46.5657" lon="4.68648">
        <ele>209</ele>
        <time>2021-11-15T16:11:00+01:00</time>
      </trkpt>
      <trkpt lat="46.56019" lon="4.68231">
        <ele>211</ele>
        <time>2021-11-15T16:11:05+01:00</time>
      </trkpt>
      <trkpt lat="46.55762" lon="4.68239">
        <ele>211</ele>
        <time>2021-11-15T16:11:10+01:00</time>
      </trkpt>
      <trkpt lat="46.55808" lon="4.67564">
        <ele>208</ele>
        <time>2021-11-15T16:11:15+01:00</time>
      </trkpt>
      <trkpt lat="46.5568" lon="4.6752">
        <ele>205</ele>
        <time>2021-11-15T16:11:20+01:00</time>
      </trkpt>
      <trkpt lat="46.55634" lon="4.67504">
        <ele>204</ele>
        <time>2021-11-15T16:11:25+01:00</time>
      </trkpt>
      <trkpt lat="46.55631" lon="4.67417">
        <ele>203</ele>
        <time>2021-11-15T16:11:30+01:00</time>
      </trkpt>
      <trkpt lat="46.55557" lon="4.67301">
        <ele>201</ele>
        <time>2021-11-15T16:11:35+01:00</time>
      </trkpt>
      <trkpt lat="46.55429" lon="4.66745">
        <ele>198</ele>
        <time>2021-11-15T16:11:40+01:00</time>
      </trkpt>
      <trkpt lat="46.55472" lon="4.66523">
        <ele>199</ele>
        <time>2021-11-15T16:11:45+01:00</time>
      </trkpt>
      <trkpt lat="46.55306" lon="4.66471">
        <ele>199</ele>
        <time>2021-11-15T16:11:50+01:00</time>
      </trkpt>
      <trkpt lat="46.55071" lon="4.66606">
        <ele>200</ele>
        <time>2021-11-15T16:11:55+01:00</time>
      </trkpt>
      <trkpt lat="46.5491" lon="4.66598">
        <ele>200</ele>
        <time>2021-11-15T16:12:00+01:00</time>
      </trkpt>
      <trkpt lat="46.54721" lon="4.66547">
        <ele>201</ele>
        <time>2021-11-15T16:12:05+01:00</time>
      </trkpt>
      <trkpt lat="46.54721" lon="4.66471">
        <ele>201</ele>
        <time>2021-11-15T16:12:10+01:00</time>
      </trkpt>
      <trkpt lat="46.54776" lon="4.66289">
        <ele>200</ele>
        <time>2021-11-15T16:12:15+01:00</time>
      </trkpt>
      <trkpt lat="46.54664" lon="4.66217">
        <ele>200</ele>
        <time>2021-11-15T16:12:20+01:00</time>
      </trkpt>
      <trkpt lat="46.54536" lon="4.65911">
        <ele>200</ele>
        <time>2021-11-15T16:12:25+01:00</time>
      </trkpt>
      <trkpt lat="46.5438" lon="4.65812">
        <ele>201</ele>
        <time>2021-11-15T16:12:30+01:00</time>
      </trkpt>
      <trkpt lat="46.53948" lon="4.65391">
        <ele>202</ele>
        <time>2021-11-15T16:12:35+01:00</time>
      </trkpt>
      <trkpt lat="46.53913" lon="4.65276">
        <ele>201</ele>
        <time>2021-11-15T16:12:40+01:00</time>
      </trkpt>
      <trkpt lat="46.53648" lon="4.64994">
        <ele>202</ele>
        <time>2021-11-15T16:12:45+01:00</time>
      </trkpt>
      <trkpt lat="46.53574" lon="4.64831">
        <ele>203</ele>
        <time>2021-11-15T16:12:50+01:00</time>
      </trkpt>
      <trkpt lat="46.53517" lon="4.6474">
        <ele>208</ele>
        <time>2021-11-15T16:12:55+01:00</time>
      </trkpt>
      <trkpt lat="46.53511" lon="4.64652">
        <ele>210</ele>
        <time>2021-11-15T16:13:00+01:00</time>
      </trkpt>
      <trkpt lat="46.53314" lon="4.64569">
        <ele>218</ele>
        <time>2021-11-15T16:13:05+01:00</time>
      </trkpt>
      <trkpt lat="46.53243" lon="4.64537">
        <ele>221</ele>
        <time>2021-11-15T16:13:10+01:00</time>
      </trkpt>
      <trkpt lat="46.5317" lon="4.64362">
        <ele>226</ele>
        <time>2021-11-15T16:13:15+01:00</time>
      </trkpt>
      <trkpt lat="46.53107" lon="4.64311">
        <ele>227</ele>
        <time>2021-11-15T16:13:20+01:00</time>
      </trkpt>
      <trkpt lat="46.53014" lon="4.64247">
        <ele>228</ele>
        <time>2021-11-15T16:13:25+01:00</time>
      </trkpt>
      <trkpt lat="46.52888" lon="4.64227">
        <ele>233</ele>
        <time>2021-11-15T16:13:30+01:00</time>
      </trkpt>
      <trkpt lat="46.52691" lon="4.64176">
        <ele>242</ele>
        <time>2021-11-15T16:13:35+01:00</time>
      </trkpt>
      <trkpt lat="46.52634" lon="4.64112">
        <ele>247</ele>
        <time>2021-11-15T16:13:40+01:00</time>
      </trkpt>
      <trkpt lat="46.52344" lon="4.64001">
        <ele>262</ele>
        <time>2021-11-15T16:13:45+01:00</time>
      </trkpt>
      <trkpt lat="46.52257" lon="4.64029">
        <ele>264</ele>
        <time>2021-11-15T16:13:50+01:00</time>
      </trkpt>
      <trkpt lat="46.5212" lon="4.64005">
        <ele>273</ele>
        <time>2021-11-15T16:13:55+01:00</time>
      </trkpt>
      <trkpt lat="46.52022" lon="4.64025">
        <ele>281</ele>
        <time>2021-11-15T16:14:00+01:00</time>
      </trkpt>
      <trkpt lat="46.51746" lon="4.63909">
        <ele>297</ele>
        <time>2021-11-15T16:14:05+01:00</time>
      </trkpt>
      <trkpt lat="46.51492" lon="4.63894">
        <ele>297</ele>
        <time>2021-11-15T16:14:10+01:00</time>
      </trkpt>
      <trkpt lat="46.51366" lon="4.63933">
        <ele>293</ele>
        <time>2021-11-15T16:14:15+01:00</time>
      </trkpt>
      <trkpt lat="46.51347" lon="4.63826">
        <ele>292</ele>
        <time>2021-11-15T16:14:20+01:00</time>
      </trkpt>
      <trkpt lat="46.51256" lon="4.63858">
        <ele>286</ele>
        <time>2021-11-15T16:14:25+01:00</time>
      </trkpt>
      <trkpt lat="46.50923" lon="4.63985">
        <ele>270</ele>
        <time>2021-11-15T16:14:30+01:00</time>
      </trkpt>
      <trkpt lat="46.50838" lon="4.64052">
        <ele>266</ele>
        <time>2021-11-15T16:14:35+01:00</time>
      </trkpt>
      <trkpt lat="46.50313" lon="4.64156">
        <ele>262</ele>
        <time>2021-11-15T16:14:40+01:00</time>
      </trkpt>
      <trkpt lat="46.5025" lon="4.64199">
        <ele>264</ele>
        <time>2021-11-15T16:14:45+01:00</time>
      </trkpt>
      <trkpt lat="46.50032" lon="4.6408">
        <ele>269</ele>
        <time>2021-11-15T16:14:50+01:00</time>
      </trkpt>
      <trkpt lat="46.50015" lon="4.64279">
        <ele>283</ele>
        <time>2021-11-15T16:14:55+01:00</time>
      </trkpt>
      <trkpt lat="46.49821" lon="4.64259">
        <ele>306</ele>
        <time>2021-11-15T16:15:00+01:00</time>
      </trkpt>
      <trkpt lat="46.49425" lon="4.64267">
        <ele>343</ele>
        <time>2021-11-15T16:15:05+01:00</time>
      </trkpt>
      <trkpt lat="46.49162" lon="4.64358">
        <ele>354</ele>
        <time>2021-11-15T16:15:10+01:00</time>
      </trkpt>
      <trkpt lat="46.49023" lon="4.6443">
        <ele>352</ele>
        <time>2021-11-15T16:15:15+01:00</time>
      </trkpt>
      <trkpt lat="46.4882" lon="4.64418">
        <ele>353</ele>
        <time>2021-11-15T16:15:20+01:00</time>
      </trkpt>
      <trkpt lat="46.48645" lon="4.64473">
        <ele>360</ele>
        <time>2021-11-15T16:15:25+01:00</time>
      </trkpt>
      <trkpt lat="46.48388" lon="4.64521">
        <ele>365</ele>
        <time>2021-11-15T16:15:30+01:00</time>
      </trkpt>
      <trkpt lat="46.48211" lon="4.64589">
        <ele>366</ele>
        <time>2021-11-15T16:15:35+01:00</time>
      </trkpt>
      <trkpt lat="46.48008" lon="4.6466">
        <ele>371</ele>
        <time>2021-11-15T16:15:40+01:00</time>
      </trkpt>
      <trkpt lat="46.47819" lon="4.64787">
        <ele>362</ele>
        <time>2021-11-15T16:15:45+01:00</time>
      </trkpt>
      <trkpt lat="46.47814" lon="4.6472">
        <ele>363</ele>
        <time>2021-11-15T16:15:50+01:00</time>
      </trkpt>
      <trkpt lat="46.47705" lon="4.64732">
        <ele>359</ele>
        <time>2021-11-15T16:15:55+01:00</time>
      </trkpt>
      <trkpt lat="46.47546" lon="4.64744">
        <ele>356</ele>
        <time>2021-11-15T16:16:00+01:00</time>
      </trkpt>
      <trkpt lat="46.47374" lon="4.64823">
        <ele>358</ele>
        <time>2021-11-15T16:16:05+01:00</time>
      </trkpt>
      <trkpt lat="46.47302" lon="4.64843">
        <ele>352</ele>
        <time>2021-11-15T16:16:10+01:00</time>
      </trkpt>
      <trkpt lat="46.47341" lon="4.65081">
        <ele>340</ele>
        <time>2021-11-15T16:16:15+01:00</time>
      </trkpt>
      <trkpt lat="46.47401" lon="4.65228">
        <ele>328</ele>
        <time>2021-11-15T16:16:20+01:00</time>
      </trkpt>
      <trkpt lat="46.47401" lon="4.65347">
        <ele>317</ele>
        <time>2021-11-15T16:16:25+01:00</time>
      </trkpt>
      <trkpt lat="46.47352" lon="4.65347">
        <ele>313</ele>
        <time>2021-11-15T16:16:30+01:00</time>
      </trkpt>
      <trkpt lat="46.47292" lon="4.65296">
        <ele>311</ele>
        <time>2021-11-15T16:16:35+01:00</time>
      </trkpt>
      <trkpt lat="46.47133" lon="4.65455">
        <ele>301</ele>
        <time>2021-11-15T16:16:40+01:00</time>
      </trkpt>
      <trkpt lat="46.47043" lon="4.65645">
        <ele>305</ele>
        <time>2021-11-15T16:16:45+01:00</time>
      </trkpt>
      <trkpt lat="46.46993" lon="4.65609">
        <ele>314</ele>
        <time>2021-11-15T16:16:50+01:00</time>
      </trkpt>
      <trkpt lat="46.46857" lon="4.65685">
        <ele>313</ele>
        <time>2021-11-15T16:16:55+01:00</time>
      </trkpt>
      <trkpt lat="46.46692" lon="4.65669">
        <ele>314</ele>
        <time>2021-11-15T16:17:00+01:00</time>
      </trkpt>
      <trkpt lat="46.46578" lon="4.65613">
        <ele>306</ele>
        <time>2021-11-15T16:17:05+01:00</time>
      </trkpt>
      <trkpt lat="46.46446" lon="4.65613">
        <ele>291</ele>
        <time>2021-11-15T16:17:10+01:00</time>
      </trkpt>
      <trkpt lat="46.46501" lon="4.65717">
        <ele>292</ele>
        <time>2021-11-15T16:17:15+01:00</time>
      </trkpt>
      <trkpt lat="46.46517" lon="4.65832">
        <ele>288</ele>
        <time>2021-11-15T16:17:20+01:00</time>
      </trkpt>
      <trkpt lat="46.46539" lon="4.65899">
        <ele>286</ele>
        <time>2021-11-15T16:17:25+01:00</time>
      </trkpt>
      <trkpt lat="46.46498" lon="4.6607">
        <ele>273</ele>
        <time>2021-11-15T16:17:30+01:00</time>
      </trkpt>
      <trkpt lat="46.46471" lon="4.65967">
        <ele>277</ele>
        <time>2021-11-15T16:17:35+01:00</time>
      </trkpt>
      <trkpt lat="46.46342" lon="4.66015">
        <ele>281</ele>
        <time>2021-11-15T16:17:40+01:00</time>
      </trkpt>
      <trkpt lat="46.46173" lon="4.66026">
        <ele>282</ele>
        <time>2021-11-15T16:17:45+01:00</time>
      </trkpt>
      <trkpt lat="46.46071" lon="4.6607">
        <ele>266</ele>
        <time>2021-11-15T16:17:50+01:00</time>
      </trkpt>
      <trkpt lat="46.45973" lon="4.66066">
        <ele>257</ele>
        <time>2021-11-15T16:17:55+01:00</time>
      </trkpt>
      <trkpt lat="46.45907" lon="4.66098">
        <ele>264</ele>
        <time>2021-11-15T16:18:00+01:00</time>
      </trkpt>
      <trkpt lat="46.45861" lon="4.6605">
        <ele>271</ele>
        <time>2021-11-15T16:18:05+01:00</time>
      </trkpt>
      <trkpt lat="46.45743" lon="4.66058">
        <ele>283</ele>
        <time>2021-11-15T16:18:10+01:00</time>
      </trkpt>
      <trkpt lat="46.4574" lon="4.65995">
        <ele>284</ele>
        <time>2021-11-15T16:18:15+01:00</time>
      </trkpt>
      <trkpt lat="46.45631" lon="4.66058">
        <ele>286</ele>
        <time>2021-11-15T16:18:20+01:00</time>
      </trkpt>
      <trkpt lat="46.45379" lon="4.66162">
        <ele>267</ele>
        <time>2021-11-15T16:18:25+01:00</time>
      </trkpt>
      <trkpt lat="46.45231" lon="4.66273">
        <ele>267</ele>
        <time>2021-11-15T16:18:30+01:00</time>
      </trkpt>
      <trkpt lat="46.45095" lon="4.66388">
        <ele>280</ele>
        <time>2021-11-15T16:18:35+01:00</time>
      </trkpt>
      <trkpt lat="46.44991" lon="4.66432">
        <ele>279</ele>
        <time>2021-11-15T16:18:40+01:00</time>
      </trkpt>
      <trkpt lat="46.447" lon="4.66352">
        <ele>261</ele>
        <time>2021-11-15T16:18:45+01:00</time>
      </trkpt>
      <trkpt lat="46.44599" lon="4.66277">
        <ele>251</ele>
        <time>2021-11-15T16:18:50+01:00</time>
      </trkpt>
      <trkpt lat="46.4443" lon="4.66114">
        <ele>236</ele>
        <time>2021-11-15T16:18:55+01:00</time>
      </trkpt>
      <trkpt lat="46.44326" lon="4.66034">
        <ele>233</ele>
        <time>2021-11-15T16:19:00+01:00</time>
      </trkpt>
      <trkpt lat="46.44232" lon="4.65876">
        <ele>245</ele>
        <time>2021-11-15T16:19:05+01:00</time>
      </trkpt>
      <trkpt lat="46.4409" lon="4.658">
        <ele>248</ele>
        <time>2021-11-15T16:19:10+01:00</time>
      </trkpt>
      <trkpt lat="46.43981" lon="4.65764">
        <ele>251</ele>
        <time>2021-11-15T16:19:15+01:00</time>
      </trkpt>
      <trkpt lat="46.43827" lon="4.658">
        <ele>252</ele>
        <time>2021-11-15T16:19:20+01:00</time>
      </trkpt>
      <trkpt lat="46.43663" lon="4.65785">
        <ele>254</ele>
        <time>2021-11-15T16:19:25+01:00</time>
      </trkpt>
      <trkpt lat="46.43595" lon="4.65707">
        <ele>255</ele>
        <time>2021-11-15T16:19:30+01:00</time>
      </trkpt>
      <trkpt lat="46.43477" lon="4.65654">
        <ele>248</ele>
        <time>2021-11-15T16:19:35+01:00</time>
      </trkpt>
      <trkpt lat="46.43418" lon="4.65755">
        <ele>244</ele>
        <time>2021-11-15T16:19:40+01:00</time>
      </trkpt>
      <trkpt lat="46.43384" lon="4.65785">
        <ele>245</ele>
        <time>2021-11-15T16:19:45+01:00</time>
      </trkpt>
      <trkpt lat="46.43327" lon="4.65913">
        <ele>241</ele>
        <time>2021-11-15T16:19:50+01:00</time>
      </trkpt>
      <trkpt lat="46.43265" lon="4.6601">
        <ele>240</ele>
        <time>2021-11-15T16:19:55+01:00</time>
      </trkpt>
      <trkpt lat="46.43233" lon="4.66115">
        <ele>239</ele>
        <time>2021-11-15T16:20:00+01:00</time>
      </trkpt>
    </trkseg>
  </trk>
</gpx>